createdAt,value
2023-11-07T00:00:02.211Z,99897.80
2023-11-07T00:02:35.011Z,99897.80
2023-11-07T00:05:04.150Z,99901.20
2023-11-07T00:07:32.081Z,99905.40
2023-11-07T00:09:59.937Z,99906.00
2023-11-07T00:12:27.728Z,99915.80
2023-11-07T00:14:55.792Z,99919.60
2023-11-07T00:17:23.585Z,99924.20
2023-11-07T00:19:51.451Z,99930.00
2023-11-07T00:22:19.473Z,99934.40
2023-11-07T00:24:48.398Z,99934.00
2023-11-07T00:27:19.803Z,99937.20
2023-11-07T00:29:48.098Z,99936.00
2023-11-07T00:32:16.135Z,99937.40
2023-11-07T00:34:44.102Z,99941.00
2023-11-07T00:37:11.866Z,99942.80
2023-11-07T00:39:39.642Z,99940.20
2023-11-07T00:42:07.521Z,99940.00
2023-11-07T00:44:35.352Z,99939.60
2023-11-07T00:47:03.951Z,99936.80
2023-11-07T00:49:31.688Z,99938.80
2023-11-07T00:52:00.941Z,99943.80
2023-11-07T00:54:29.038Z,99941.60
2023-11-07T00:56:56.943Z,99944.60
2023-11-07T00:59:24.843Z,99950.40
2023-11-07T01:01:52.608Z,99954.60
2023-11-07T01:04:20.553Z,99948.60
2023-11-07T01:06:48.772Z,99952.00
2023-11-07T01:09:17.856Z,99946.40
2023-11-07T01:11:45.672Z,99954.40
2023-11-07T01:14:13.499Z,99953.20
2023-11-07T01:16:41.308Z,99954.80
2023-11-07T01:19:09.145Z,99951.60
2023-11-07T01:21:37.036Z,99951.40
2023-11-07T01:24:06.237Z,99952.00
2023-11-07T01:26:34.005Z,99954.00
2023-11-07T01:29:01.771Z,99953.60
2023-11-07T01:31:29.660Z,99954.40
2023-11-07T01:33:57.530Z,99950.00
2023-11-07T01:36:25.534Z,99950.00
2023-11-07T01:38:54.624Z,99952.60
2023-11-07T01:41:22.694Z,99952.20
2023-11-07T01:43:50.512Z,99951.60
2023-11-07T01:46:18.397Z,99952.00
2023-11-07T01:48:47.753Z,99957.00
2023-11-07T01:51:15.803Z,99958.80
2023-11-07T01:53:44.134Z,99956.40
2023-11-07T01:56:12.812Z,99954.40
2023-11-07T01:58:41.067Z,99958.20
2023-11-07T02:01:09.091Z,99957.20
2023-11-07T02:03:39.515Z,99957.60
2023-11-07T02:06:08.346Z,99958.60
2023-11-07T02:08:36.415Z,99965.40
2023-11-07T02:11:05.497Z,99963.20
2023-11-07T02:13:33.780Z,99957.20
2023-11-07T02:16:01.610Z,99962.20
2023-11-07T02:18:29.522Z,99958.20
2023-11-07T02:20:57.661Z,99956.80
2023-11-07T02:23:35.589Z,99960.00
2023-11-07T02:26:03.919Z,99961.40
2023-11-07T02:28:32.973Z,99961.80
2023-11-07T02:31:01.046Z,99963.80
2023-11-07T02:33:28.992Z,99965.60
2023-11-07T02:35:56.917Z,99962.40
2023-11-07T02:38:24.853Z,99962.80
2023-11-07T02:40:52.627Z,99960.80
2023-11-07T02:43:21.138Z,99957.00
2023-11-07T02:45:50.150Z,99956.80
2023-11-07T02:48:18.210Z,99960.80
2023-11-07T02:50:46.307Z,99962.80
2023-11-07T02:53:15.316Z,99963.00
2023-11-07T02:55:43.520Z,99962.40
2023-11-07T02:58:12.285Z,99958.20
2023-11-07T03:00:40.220Z,99961.60
2023-11-07T03:03:09.631Z,99964.40
2023-11-07T03:05:37.967Z,99965.80
2023-11-07T03:08:07.867Z,99969.40
2023-11-07T03:10:36.141Z,99971.00
2023-11-07T03:13:04.599Z,99973.40
2023-11-07T03:15:33.203Z,99973.60
2023-11-07T03:18:01.357Z,99972.40
2023-11-07T03:20:29.345Z,99978.20
2023-11-07T03:22:57.171Z,99974.20
2023-11-07T03:25:25.017Z,99976.00
2023-11-07T03:27:53.099Z,99980.80
2023-11-07T03:30:21.440Z,99986.40
2023-11-07T03:32:49.214Z,99988.60
2023-11-07T03:35:18.939Z,99983.60
2023-11-07T03:37:47.256Z,99975.60
2023-11-07T03:40:15.138Z,99972.20
2023-11-07T03:42:42.999Z,99971.60
2023-11-07T03:45:11.199Z,99978.80
2023-11-07T03:47:39.223Z,99983.80
2023-11-07T03:50:08.293Z,99989.00
2023-11-07T03:52:36.065Z,99989.60
2023-11-07T03:55:04.466Z,99986.40
2023-11-07T03:57:32.350Z,99990.00
2023-11-07T04:00:00.269Z,99992.60
2023-11-07T04:02:28.304Z,99984.40
2023-11-07T04:04:56.196Z,99980.80
2023-11-07T04:07:23.973Z,99980.20
2023-11-07T04:09:52.199Z,99975.20
2023-11-07T04:12:20.005Z,99978.60
2023-11-07T04:14:47.833Z,99975.00
2023-11-07T04:17:16.800Z,99978.40
2023-11-07T04:19:44.715Z,99979.00
2023-11-07T04:22:12.470Z,99979.60
2023-11-07T04:24:40.213Z,99982.20
2023-11-07T04:27:09.037Z,99989.20
2023-11-07T04:29:38.387Z,99992.00
2023-11-07T04:32:06.613Z,99992.60
2023-11-07T04:34:35.770Z,99992.60
2023-11-07T04:37:04.611Z,100000.80
2023-11-07T04:39:32.433Z,100000.80
2023-11-07T04:42:00.331Z,100002.80
2023-11-07T04:44:28.752Z,100002.00
2023-11-07T04:46:56.557Z,99995.40
2023-11-07T04:49:24.605Z,99996.40
2023-11-07T04:51:52.581Z,99996.60
2023-11-07T04:54:20.354Z,99996.20
2023-11-07T04:56:48.227Z,99984.00
2023-11-07T04:59:16.144Z,99988.00
2023-11-07T05:01:46.637Z,99987.80
2023-11-07T05:04:15.497Z,99984.20
2023-11-07T05:06:44.017Z,99984.60
2023-11-07T05:09:13.726Z,99987.60
2023-11-07T05:11:41.920Z,99986.40
2023-11-07T05:14:10.360Z,99991.60
2023-11-07T05:16:39.937Z,99998.00
2023-11-07T05:19:10.946Z,99994.60
2023-11-07T05:21:38.752Z,99997.80
2023-11-07T05:24:07.190Z,99992.40
2023-11-07T05:26:35.084Z,99997.00
2023-11-07T05:29:02.867Z,100000.80
2023-11-07T05:31:32.709Z,100002.40
2023-11-07T05:34:01.884Z,100002.40
2023-11-07T05:36:29.684Z,100008.00
2023-11-07T05:38:57.711Z,100008.60
2023-11-07T05:41:26.424Z,100012.80
2023-11-07T05:43:54.209Z,100017.20
2023-11-07T05:46:22.952Z,100024.00
2023-11-07T05:48:53.674Z,100023.60
2023-11-07T05:51:24.880Z,100029.20
2023-11-07T05:53:52.716Z,100026.20
2023-11-07T05:56:20.663Z,100028.40
2023-11-07T05:58:50.646Z,100031.60
2023-11-07T06:01:19.275Z,100032.80
2023-11-07T06:03:47.161Z,100032.60
2023-11-07T06:06:15.490Z,100037.60
2023-11-07T06:08:43.489Z,100045.80
2023-11-07T06:11:11.305Z,100048.60
2023-11-07T06:13:39.055Z,100048.60
2023-11-07T06:16:07.638Z,100048.20
2023-11-07T06:18:35.463Z,100051.80
2023-11-07T06:21:05.206Z,100048.60
2023-11-07T06:23:32.998Z,100052.00
2023-11-07T06:26:00.904Z,100057.40
2023-11-07T06:28:30.124Z,100054.60
2023-11-07T06:30:57.919Z,100057.40
2023-11-07T06:33:25.810Z,100062.40
2023-11-07T06:35:53.896Z,100064.20
2023-11-07T06:38:26.724Z,100059.60
2023-11-07T06:40:57.020Z,100061.40
2023-11-07T06:43:26.435Z,100065.60
2023-11-07T06:45:54.348Z,100064.00
2023-11-07T06:48:22.307Z,100080.60
2023-11-07T06:50:50.230Z,100069.40
2023-11-07T06:53:18.099Z,100071.40
2023-11-07T06:55:45.873Z,100075.20
2023-11-07T06:58:13.670Z,100071.60
2023-11-07T07:00:43.769Z,100067.00
2023-11-07T07:03:11.799Z,100074.20
2023-11-07T07:05:39.785Z,100078.60
2023-11-07T07:08:09.604Z,100081.80
2023-11-07T07:10:39.430Z,100082.00
2023-11-07T07:13:07.192Z,100089.20
2023-11-07T07:15:35.012Z,100099.60
2023-11-07T07:18:06.594Z,100103.80
2023-11-07T07:20:38.119Z,100108.60
2023-11-07T07:23:10.206Z,100112.00
2023-11-07T07:25:38.558Z,100111.60
2023-11-07T07:28:09.737Z,100109.00
2023-11-07T07:30:38.954Z,100109.80
2023-11-07T07:33:10.347Z,100109.40
2023-11-07T07:35:38.901Z,100110.00
2023-11-07T07:38:10.322Z,100111.00
2023-11-07T07:40:39.578Z,100123.60
2023-11-07T07:43:11.202Z,100126.60
2023-11-07T07:45:44.017Z,100127.40
2023-11-07T07:48:13.081Z,100131.60
2023-11-07T07:50:43.428Z,100133.80
2023-11-07T07:53:12.053Z,100135.80
2023-11-07T07:55:44.853Z,100138.80
2023-11-07T07:58:19.865Z,100132.60
2023-11-07T08:00:51.213Z,100142.80
2023-11-07T08:03:20.445Z,100136.60
2023-11-07T08:05:52.864Z,100134.20
2023-11-07T08:08:20.796Z,100142.20
2023-11-07T08:10:50.080Z,100140.20
2023-11-07T08:13:19.707Z,100134.40
2023-11-07T08:15:50.087Z,100133.20
2023-11-07T08:18:19.027Z,100134.00
2023-11-07T08:20:47.192Z,100145.20
2023-11-07T08:23:15.056Z,100148.60
2023-11-07T08:25:42.810Z,100145.00
2023-11-07T08:28:11.336Z,100142.80
2023-11-07T08:30:39.694Z,100146.20
2023-11-07T08:33:09.016Z,100148.20
2023-11-07T08:35:40.349Z,100151.80
2023-11-07T08:38:08.331Z,100156.40
2023-11-07T08:40:36.760Z,100160.40
2023-11-07T08:43:04.964Z,100163.40
2023-11-07T08:45:34.357Z,100166.20
2023-11-07T08:48:02.752Z,100163.40
2023-11-07T08:50:30.763Z,100168.80
2023-11-07T08:52:58.943Z,100167.80
2023-11-07T08:55:27.446Z,100172.40
2023-11-07T08:57:55.421Z,100166.80
2023-11-07T09:00:24.157Z,100164.80
2023-11-07T09:02:54.010Z,100167.20
2023-11-07T09:05:23.720Z,100167.40
2023-11-07T09:07:51.890Z,100171.00
2023-11-07T09:10:21.680Z,100170.80
2023-11-07T09:12:49.748Z,100174.60
2023-11-07T09:15:21.267Z,100180.60
2023-11-07T09:17:49.443Z,100183.80
2023-11-07T09:20:17.669Z,100182.20
2023-11-07T09:22:47.211Z,100183.00
2023-11-07T09:25:15.154Z,100180.60
2023-11-07T09:27:43.115Z,100183.00
2023-11-07T09:30:12.635Z,100186.00
2023-11-07T09:32:44.685Z,100189.00
2023-11-07T09:35:12.868Z,100182.80
2023-11-07T09:37:41.546Z,100192.20
2023-11-07T09:40:14.494Z,100190.20
2023-11-07T09:42:42.692Z,100185.40
2023-11-07T09:45:16.315Z,100184.60
2023-11-07T09:47:49.348Z,100188.60
2023-11-07T09:50:22.947Z,100187.00
2023-11-07T09:52:54.223Z,100183.60
2023-11-07T09:55:29.277Z,100187.40
2023-11-07T09:58:15.917Z,100191.80
2023-11-07T10:00:46.597Z,100195.40
2023-11-07T10:03:15.840Z,100200.20
2023-11-07T10:05:47.699Z,100202.80
2023-11-07T10:08:17.558Z,100204.00
2023-11-07T10:11:08.094Z,100205.00
2023-11-07T10:13:36.140Z,100197.60
2023-11-07T10:18:49.814Z,100204.80
2023-11-07T10:21:32.312Z,100200.40
2023-11-07T10:24:00.912Z,100198.20
2023-11-07T10:26:28.869Z,100200.00
2023-11-07T10:29:18.228Z,100199.40
2023-11-07T10:32:00.602Z,100202.80
2023-11-07T10:34:28.468Z,100197.80
2023-11-07T10:36:56.813Z,100199.60
2023-11-07T10:39:27.248Z,100200.20
2023-11-07T10:41:56.541Z,100205.20
2023-11-07T10:44:31.506Z,100205.60
2023-11-07T10:46:59.935Z,100199.60
2023-11-07T10:49:27.794Z,100203.00
2023-11-07T10:51:56.968Z,100202.80
2023-11-07T10:54:31.385Z,100200.00
2023-11-07T10:57:06.375Z,100197.20
2023-11-07T10:59:36.537Z,100195.00
2023-11-07T11:02:05.307Z,100197.60
2023-11-07T11:04:37.938Z,100197.20
2023-11-07T11:07:08.731Z,100198.20
2023-11-07T11:09:36.842Z,100197.40
2023-11-07T11:12:05.759Z,100198.40
2023-11-07T11:14:34.248Z,100208.80
2023-11-07T11:17:39.845Z,100205.40
2023-11-07T11:20:36.346Z,100202.40
2023-11-07T11:23:19.723Z,100204.80
2023-11-07T11:26:06.004Z,100207.00
2023-11-07T11:28:42.172Z,100202.60
2023-11-07T11:31:19.889Z,100200.40
2023-11-07T11:33:48.495Z,100200.00
2023-11-07T11:36:40.862Z,100196.60
2023-11-07T11:39:30.689Z,100194.00
2023-11-07T11:42:01.760Z,100199.20
2023-11-07T11:44:30.666Z,100196.20
2023-11-07T11:47:01.784Z,100194.00
2023-11-07T11:49:29.651Z,100199.20
2023-11-07T11:51:58.906Z,100199.00
2023-11-07T11:54:33.959Z,100200.00
2023-11-07T11:57:04.448Z,100204.00
2023-11-07T11:59:54.455Z,100200.40
2023-11-07T12:02:43.672Z,100197.40
2023-11-07T12:05:19.909Z,100196.20
2023-11-07T12:07:49.821Z,100193.20
2023-11-07T12:10:22.897Z,100192.00
2023-11-07T12:12:59.263Z,100191.60
2023-11-07T12:15:28.137Z,100186.80
2023-11-07T12:17:56.243Z,100183.80
2023-11-07T12:20:24.210Z,100186.00
2023-11-07T12:22:52.538Z,100187.20
2023-11-07T12:25:22.278Z,100190.00
2023-11-07T12:28:06.010Z,100191.00
2023-11-07T12:30:38.337Z,100192.60
2023-11-07T12:33:11.910Z,100187.60
2023-11-07T12:35:40.481Z,100188.80
2023-11-07T12:38:11.449Z,100190.40
2023-11-07T12:40:41.256Z,100194.60
2023-11-07T12:43:09.889Z,100194.20
2023-11-07T12:45:39.753Z,100200.20
2023-11-07T12:48:13.847Z,100197.00
2023-11-07T12:50:48.509Z,100197.00
2023-11-07T12:53:19.789Z,100201.40
2023-11-07T12:55:55.447Z,100199.20
2023-11-07T12:58:34.484Z,100191.40
2023-11-07T13:01:05.877Z,100194.00
2023-11-07T13:03:35.379Z,100192.80
2023-11-07T13:06:13.724Z,100190.80
2023-11-07T13:08:47.213Z,100195.60
2023-11-07T13:11:25.341Z,100193.40
2023-11-07T13:13:53.251Z,100199.40
2023-11-07T13:16:21.440Z,100201.40
2023-11-07T13:18:58.439Z,100196.80
2023-11-07T13:21:27.266Z,100197.80
2023-11-07T13:23:55.346Z,100196.60
2023-11-07T13:26:24.457Z,100199.40
2023-11-07T13:28:52.462Z,100198.60
2023-11-07T13:31:20.419Z,100201.00
2023-11-07T13:33:50.894Z,100201.60
2023-11-07T13:36:18.807Z,100202.00
2023-11-07T13:38:49.501Z,100204.40
2023-11-07T13:41:17.788Z,100208.80
2023-11-07T13:43:45.932Z,100208.20
2023-11-07T13:46:18.840Z,100211.00
2023-11-07T13:48:49.822Z,100209.00
2023-11-07T13:51:17.928Z,100215.20
2023-11-07T13:53:46.713Z,100218.40
2023-11-07T13:56:15.611Z,100213.00
2023-11-07T13:58:44.473Z,100215.60
2023-11-07T14:01:13.796Z,100220.80
2023-11-07T14:03:41.959Z,100221.20
2023-11-07T14:06:10.163Z,100219.00
2023-11-07T14:08:38.120Z,100216.40
2023-11-07T14:11:05.913Z,100212.60
2023-11-07T14:13:33.731Z,100217.20
2023-11-07T14:16:01.614Z,100215.40
2023-11-07T14:18:32.433Z,100215.40
2023-11-07T14:21:03.701Z,100217.20
2023-11-07T14:23:32.019Z,100216.60
2023-11-07T14:26:00.017Z,100217.00
2023-11-07T14:28:28.481Z,100214.80
2023-11-07T14:31:00.320Z,100216.60
2023-11-07T14:33:30.853Z,100210.00
2023-11-07T14:36:00.757Z,100212.80
2023-11-07T14:38:35.082Z,100209.20
2023-11-07T14:41:08.669Z,100209.40
2023-11-07T14:43:37.334Z,100211.40
2023-11-07T14:46:06.731Z,100212.00
2023-11-07T14:48:35.575Z,100209.60
2023-11-07T14:51:04.040Z,100210.20
2023-11-07T14:53:31.941Z,100215.00
2023-11-07T14:55:59.969Z,100214.00
2023-11-07T14:58:27.832Z,100220.80
2023-11-07T15:00:58.163Z,100216.80
2023-11-07T15:03:26.522Z,100216.60
2023-11-07T15:05:55.363Z,100216.40
2023-11-07T15:08:23.650Z,100216.00
2023-11-07T15:10:51.536Z,100212.00
2023-11-07T15:13:19.527Z,100219.00
2023-11-07T15:15:47.714Z,100216.60
2023-11-07T15:18:15.827Z,100213.60
2023-11-07T15:20:44.118Z,100215.00
2023-11-07T15:23:11.993Z,100214.20
2023-11-07T15:25:40.952Z,100222.00
2023-11-07T15:28:09.500Z,100218.80
2023-11-07T15:30:37.388Z,100219.60
2023-11-07T15:33:05.540Z,100224.40
2023-11-07T15:35:38.219Z,100231.00
2023-11-07T15:38:08.169Z,100227.20
2023-11-07T15:40:36.789Z,100229.80
2023-11-07T15:43:06.192Z,100228.00
2023-11-07T15:45:35.398Z,100231.20
2023-11-07T15:48:09.272Z,100232.00
2023-11-07T15:50:38.920Z,100231.00
2023-11-07T15:53:09.981Z,100229.40
2023-11-07T15:55:40.565Z,100235.00
2023-11-07T15:58:09.856Z,100235.60
2023-11-07T16:00:37.915Z,100237.80
2023-11-07T16:03:06.802Z,100232.40
2023-11-07T16:05:36.905Z,100234.60
2023-11-07T16:08:10.190Z,100232.60
2023-11-07T16:10:38.167Z,100230.40
2023-11-07T16:13:06.708Z,100232.80
2023-11-07T16:15:35.109Z,100235.00
2023-11-07T16:18:03.893Z,100234.20
2023-11-07T16:20:32.440Z,100236.60
2023-11-07T16:23:00.712Z,100236.80
2023-11-07T16:25:28.610Z,100239.20
2023-11-07T16:27:57.528Z,100244.00
2023-11-07T16:30:25.530Z,100241.80
2023-11-07T16:32:53.614Z,100237.60
2023-11-07T16:35:21.796Z,100235.60
2023-11-07T16:37:52.706Z,100232.60
2023-11-07T16:40:20.789Z,100236.00
2023-11-07T16:42:52.861Z,100240.80
2023-11-07T16:45:20.872Z,100241.60
2023-11-07T16:47:52.666Z,100244.20
2023-11-07T16:50:21.915Z,100243.60
2023-11-07T16:52:50.566Z,100243.00
2023-11-07T16:55:18.309Z,100239.20
2023-11-07T16:57:46.569Z,100234.80
2023-11-07T17:00:19.124Z,100236.60
2023-11-07T17:02:47.851Z,100238.20
2023-11-07T17:05:16.722Z,100236.80
2023-11-07T17:07:45.674Z,100239.00
2023-11-07T17:10:13.822Z,100243.60
2023-11-07T17:12:41.747Z,100243.00
2023-11-07T17:15:12.850Z,100242.40
2023-11-07T17:17:41.523Z,100239.20
2023-11-07T17:20:09.982Z,100242.40
2023-11-07T17:22:38.828Z,100244.20
2023-11-07T17:25:08.013Z,100239.40
2023-11-07T17:27:36.409Z,100242.00
2023-11-07T17:30:05.523Z,100240.20
2023-11-07T17:32:33.518Z,100239.00
2023-11-07T17:35:04.865Z,100239.60
2023-11-07T17:37:34.215Z,100238.60
2023-11-07T17:40:02.293Z,100238.00
2023-11-07T17:42:30.441Z,100233.20
2023-11-07T17:44:58.746Z,100230.00
2023-11-07T17:47:27.061Z,100228.40
2023-11-07T17:49:56.560Z,100231.20
2023-11-07T17:52:24.498Z,100231.60
2023-11-07T17:54:52.753Z,100233.20
2023-11-07T17:57:23.579Z,100237.00
2023-11-07T17:59:53.929Z,100235.40
2023-11-07T18:02:24.070Z,100237.40
2023-11-07T18:04:52.044Z,100235.20
2023-11-07T18:07:22.653Z,100237.20
2023-11-07T18:09:51.371Z,100233.80
2023-11-07T18:12:20.995Z,100235.80
2023-11-07T18:14:49.274Z,100227.20
2023-11-07T18:17:17.220Z,100225.40
2023-11-07T18:19:45.193Z,100229.40
2023-11-07T18:22:13.301Z,100230.60
2023-11-07T18:24:41.310Z,100230.00
2023-11-07T18:27:09.225Z,100230.20
2023-11-07T18:29:38.044Z,100232.00
2023-11-07T18:32:08.079Z,100228.40
2023-11-07T18:34:36.575Z,100228.80
2023-11-07T18:37:06.378Z,100223.20
2023-11-07T18:39:36.707Z,100229.20
2023-11-07T18:42:05.320Z,100228.20
2023-11-07T18:44:36.904Z,100224.20
2023-11-07T18:47:06.243Z,100230.60
2023-11-07T18:49:34.790Z,100232.00
2023-11-07T18:52:03.838Z,100231.60
2023-11-07T18:54:32.080Z,100229.20
2023-11-07T18:57:00.181Z,100229.60
2023-11-07T18:59:34.741Z,100231.00
2023-11-07T19:02:07.623Z,100230.00
2023-11-07T19:04:40.581Z,100226.00
2023-11-07T19:07:09.000Z,100226.80
2023-11-07T19:09:37.101Z,100223.40
2023-11-07T19:12:07.898Z,100220.00
2023-11-07T19:14:39.861Z,100214.80
2023-11-07T19:17:08.821Z,100218.40
2023-11-07T19:19:37.496Z,100217.80
2023-11-07T19:22:05.343Z,100216.40
2023-11-07T19:24:33.243Z,100213.00
2023-11-07T19:27:04.064Z,100216.40
2023-11-07T19:29:31.952Z,100215.40
2023-11-07T19:32:00.985Z,100213.80
2023-11-07T19:34:29.049Z,100216.80
2023-11-07T19:36:57.234Z,100215.60
2023-11-07T19:39:31.123Z,100212.00
2023-11-07T19:42:03.961Z,100218.80
2023-11-07T19:44:35.418Z,100221.00
2023-11-07T19:47:04.306Z,100218.00
2023-11-07T19:49:33.330Z,100218.80
2023-11-07T19:52:03.817Z,100213.80
2023-11-07T19:54:31.933Z,100215.40
2023-11-07T19:57:00.594Z,100215.80
2023-11-07T19:59:28.468Z,100215.20
2023-11-07T20:01:56.910Z,100223.00
2023-11-07T20:04:25.559Z,100219.60
2023-11-07T20:06:53.822Z,100219.80
2023-11-07T20:09:22.883Z,100219.40
2023-11-07T20:11:50.877Z,100220.80
2023-11-07T20:14:19.274Z,100220.20
2023-11-07T20:16:48.024Z,100221.40
2023-11-07T20:19:16.212Z,100220.80
2023-11-07T20:21:44.352Z,100221.20
2023-11-07T20:24:12.635Z,100210.40
2023-11-07T20:26:40.516Z,100215.20
2023-11-07T20:29:08.311Z,100210.80
2023-11-07T20:31:36.152Z,100206.00
2023-11-07T20:34:04.051Z,100213.20
2023-11-07T20:36:31.972Z,100207.40
2023-11-07T20:39:01.204Z,100209.40
2023-11-07T20:41:31.059Z,100207.40
2023-11-07T20:43:58.816Z,100203.20
2023-11-07T20:46:33.395Z,100203.60
2023-11-07T20:49:04.082Z,100202.20
2023-11-07T20:51:35.508Z,100203.40
2023-11-07T20:54:04.815Z,100201.00
2023-11-07T20:56:33.939Z,100197.20
2023-11-07T20:59:04.327Z,100201.60
2023-11-07T21:01:32.282Z,100201.60
2023-11-07T21:04:01.379Z,100195.60
2023-11-07T21:06:29.541Z,100198.80
2023-11-07T21:08:57.743Z,100191.00
2023-11-07T21:11:25.911Z,100192.60
2023-11-07T21:13:54.110Z,100196.20
2023-11-07T21:16:23.719Z,100197.00
2023-11-07T21:18:51.967Z,100198.60
2023-11-07T21:21:21.271Z,100199.80
2023-11-07T21:23:49.235Z,100201.20
2023-11-07T21:26:17.324Z,100199.20
2023-11-07T21:28:45.874Z,100198.60
2023-11-07T21:31:14.152Z,100195.40
2023-11-07T21:33:42.304Z,100193.80
2023-11-07T21:36:12.157Z,100196.00
2023-11-07T21:38:40.198Z,100191.20
2023-11-07T21:41:08.014Z,100193.40
2023-11-07T21:43:35.886Z,100196.80
2023-11-07T21:46:04.662Z,100194.00
2023-11-07T21:48:32.838Z,100188.80
2023-11-07T21:51:00.917Z,100188.00
2023-11-07T21:53:30.256Z,100192.00
2023-11-07T21:55:59.090Z,100193.60
2023-11-07T21:58:26.952Z,100196.60
2023-11-07T22:00:54.831Z,100195.00
2023-11-07T22:03:23.014Z,100198.40
2023-11-07T22:05:50.878Z,100193.80
2023-11-07T22:08:19.205Z,100197.80
2023-11-07T22:10:48.955Z,100201.20
2023-11-07T22:13:16.982Z,100197.20
2023-11-07T22:15:45.026Z,100197.20
2023-11-07T22:18:13.127Z,100194.20
2023-11-07T22:20:42.817Z,100191.40
2023-11-07T22:23:10.979Z,100185.40
2023-11-07T22:25:38.917Z,100186.20
2023-11-07T22:28:08.949Z,100187.00
2023-11-07T22:30:36.859Z,100182.60
2023-11-07T22:33:05.126Z,100196.00
2023-11-07T22:35:34.647Z,100192.80
2023-11-07T22:38:04.306Z,100193.60
2023-11-07T22:40:32.175Z,100190.00
2023-11-07T22:43:00.529Z,100194.00
2023-11-07T22:45:28.464Z,100187.00
2023-11-07T22:47:56.462Z,100186.60
2023-11-07T22:50:24.908Z,100189.60
2023-11-07T22:52:52.696Z,100185.40
2023-11-07T22:55:21.392Z,100183.00
2023-11-07T22:57:49.413Z,100180.80
2023-11-07T23:00:28.978Z,100181.40
2023-11-07T23:03:01.603Z,100172.40
2023-11-07T23:05:29.717Z,100170.20
2023-11-07T23:07:57.544Z,100166.60
2023-11-07T23:10:25.340Z,100166.00
2023-11-07T23:12:53.421Z,100168.40
2023-11-07T23:15:21.264Z,100170.00
2023-11-07T23:17:49.314Z,100160.00
2023-11-07T23:20:18.051Z,100162.20
2023-11-07T23:22:45.746Z,100156.20
2023-11-07T23:25:14.200Z,100150.00
2023-11-07T23:27:42.414Z,100147.60
2023-11-07T23:30:11.204Z,100144.00
2023-11-07T23:32:39.649Z,100145.00
2023-11-07T23:35:08.579Z,100142.40
2023-11-07T23:37:36.882Z,100142.60
2023-11-07T23:40:11.612Z,100141.40
2023-11-07T23:42:42.552Z,100144.00
2023-11-07T23:45:11.055Z,100144.40
2023-11-07T23:47:41.295Z,100149.40
2023-11-07T23:50:11.300Z,100155.40
2023-11-07T23:52:40.439Z,100150.40
2023-11-07T23:55:09.365Z,100151.80
2023-11-07T23:57:37.589Z,100145.00
